Time;durP1;ratioP1;P1;durP2;ratioP2;P2;SDS_P1;SDS_P2;PMS_P1;PMS_P2;Temp;Humidity;BMP_temperature;BMP_pressure;BME280_temperature;BME280_humidity;BME280_pressure;Samples;Min_cycle;Max_cycle;Signal;HPM_P1;HPM_P2
2023/07/02 00:00:05;;;;;;;24.30;7.07;;;15.20;99.90;;;;;;5042411;28;20068;-80
2023/07/02 00:02:30;;;;;;;19.52;6.57;;;15.20;99.90;;;;;;5044048;28;20116;-80
2023/07/02 00:04:56;;;;;;;25.40;7.07;;;15.10;99.90;;;;;;5043497;28;20137;-79
2023/07/02 00:07:22;;;;;;;23.33;7.38;;;15.00;99.90;;;;;;5032340;28;20045;-79
2023/07/02 00:09:47;;;;;;;17.23;6.78;;;15.20;99.90;;;;;;5014767;28;20454;-79
2023/07/02 00:12:13;;;;;;;22.70;7.63;;;15.00;99.90;;;;;;5032276;28;20059;-79
2023/07/02 00:14:39;;;;;;;21.50;7.63;;;15.00;99.90;;;;;;5014403;28;20408;-80
2023/07/02 00:17:05;;;;;;;23.92;7.63;;;15.00;99.90;;;;;;5030117;28;20088;-79
2023/07/02 00:19:30;;;;;;;18.42;7.03;;;15.00;99.90;;;;;;5042424;28;20148;-79
2023/07/02 00:21:56;;;;;;;31.17;8.52;;;15.00;99.90;;;;;;5043442;28;20053;-79
2023/07/02 00:24:22;;;;;;;22.02;7.60;;;15.00;99.90;;;;;;5042230;28;20049;-80
2023/07/02 00:26:47;;;;;;;21.08;8.25;;;15.00;99.90;;;;;;5040068;28;20049;-79
2023/07/02 00:29:13;;;;;;;29.00;8.95;;;15.00;99.90;;;;;;5040117;28;20049;-78
2023/07/02 00:31:39;;;;;;;23.15;7.80;;;15.00;99.90;;;;;;5041893;28;20069;-79
2023/07/02 00:34:04;;;;;;;27.02;7.90;;;14.90;99.90;;;;;;5043242;28;20427;-80
2023/07/02 00:36:31;;;;;;;25.10;7.97;;;14.90;99.90;;;;;;5034498;28;20052;-79
2023/07/02 00:38:58;;;;;;;20.98;7.88;;;14.90;99.90;;;;;;5042979;28;20055;-79
2023/07/02 00:41:24;;;;;;;25.25;7.78;;;14.90;99.90;;;;;;5043068;28;20087;-80
2023/07/02 00:43:49;;;;;;;26.95;7.65;;;14.90;99.90;;;;;;5040688;28;20132;-80
2023/07/02 00:46:22;;;;;;;22.25;8.27;;;14.90;99.90;;;;;;5039752;28;20120;-79
2023/07/02 00:48:54;;;;;;;24.77;7.68;;;14.90;99.90;;;;;;5034323;28;20044;-79
2023/07/02 00:51:25;;;;;;;23.17;7.68;;;14.80;99.90;;;;;;5039308;28;20039;-78
2023/07/02 00:53:56;;;;;;;30.08;7.88;;;14.80;99.90;;;;;;5022321;28;20063;-78
2023/07/02 00:56:22;;;;;;;29.38;8.45;;;14.80;99.90;;;;;;5042375;28;20763;-77
2023/07/02 00:58:50;;;;;;;27.65;8.23;;;14.90;99.90;;;;;;5042728;28;20045;-78
2023/07/02 01:01:25;;;;;;;27.15;8.65;;;14.80;99.90;;;;;;5031382;28;20083;-79
2023/07/02 01:04:02;;;;;;;28.00;9.00;;;14.80;99.90;;;;;;5039383;28;20045;-79
2023/07/02 01:06:35;;;;;;;29.73;8.38;;;14.80;99.90;;;;;;5031764;28;20051;-77
2023/07/02 01:09:04;;;;;;;27.90;8.50;;;14.70;99.90;;;;;;5045707;28;20033;-78
2023/07/02 01:11:54;;;;;;;21.95;8.20;;;14.70;99.90;;;;;;5039470;28;20041;-80
2023/07/02 01:14:43;;;;;;;32.17;8.73;;;14.70;99.90;;;;;;4940915;29;20111;-79
2023/07/02 01:17:10;;;;;;;26.52;8.45;;;14.70;99.90;;;;;;4941985;29;20105;-78
2023/07/02 01:19:51;;;;;;;29.95;8.82;;;14.70;99.90;;;;;;4938750;29;20059;-79
2023/07/02 01:22:18;;;;;;;27.05;8.55;;;14.60;99.90;;;;;;4938843;29;20411;-78
2023/07/02 01:24:46;;;;;;;28.30;8.75;;;14.60;99.90;;;;;;4925881;29;20070;-79
2023/07/02 01:27:11;;;;;;;28.10;8.75;;;14.50;99.90;;;;;;4942019;29;20051;-77
2023/07/02 01:29:37;;;;;;;26.05;8.30;;;14.50;99.90;;;;;;4923257;29;20057;-78
2023/07/02 01:32:03;;;;;;;20.42;8.82;;;14.50;99.90;;;;;;4938638;29;20047;-79
2023/07/02 01:34:29;;;;;;;28.00;9.70;;;14.50;99.90;;;;;;4939164;29;20055;-79
2023/07/02 01:36:55;;;;;;;37.95;10.00;;;14.40;99.90;;;;;;4925152;29;20464;-78
2023/07/02 01:39:20;;;;;;;21.45;8.20;;;14.40;99.90;;;;;;4941480;29;20050;-79
2023/07/02 01:41:54;;;;;;;27.63;8.20;;;14.30;99.90;;;;;;4939894;29;20055;-79
2023/07/02 01:44:20;;;;;;;26.75;9.32;;;14.30;99.90;;;;;;4938785;29;20079;-80
2023/07/02 01:46:49;;;;;;;25.67;8.90;;;14.20;99.90;;;;;;4939390;29;20514;-80
2023/07/02 01:49:20;;;;;;;33.88;9.18;;;14.20;99.90;;;;;;4937467;29;20126;-79
2023/07/02 01:51:50;;;;;;;34.10;9.23;;;14.20;99.90;;;;;;5007424;28;20088;-80
2023/07/02 01:54:16;;;;;;;30.73;8.13;;;14.20;99.90;;;;;;5040064;28;20524;-79
2023/07/02 01:56:42;;;;;;;28.17;8.98;;;14.10;99.90;;;;;;5038521;28;20052;-79
2023/07/02 01:59:07;;;;;;;27.42;8.27;;;14.10;99.90;;;;;;5040758;28;20045;-79
2023/07/02 02:01:33;;;;;;;28.13;9.90;;;14.00;99.90;;;;;;5036374;28;20048;-79
2023/07/02 02:03:59;;;;;;;24.95;8.35;;;14.00;99.90;;;;;;5013171;28;20050;-79
2023/07/02 02:06:24;;;;;;;29.27;9.02;;;14.10;99.90;;;;;;5041927;28;20458;-78
2023/07/02 02:08:50;;;;;;;39.42;9.50;;;13.90;99.90;;;;;;5041902;28;20064;-79
2023/07/02 02:11:16;;;;;;;32.17;8.70;;;14.30;99.90;;;;;;5039945;28;20400;-79
2023/07/02 02:13:41;;;;;;;24.73;8.57;;;13.90;99.90;;;;;;5041458;28;20484;-78
2023/07/02 02:16:07;;;;;;;28.92;8.65;;;13.90;99.90;;;;;;5031159;28;20562;-78
2023/07/02 02:18:33;;;;;;;29.10;8.85;;;13.80;99.90;;;;;;5015295;28;20053;-79
2023/07/02 02:20:58;;;;;;;29.58;10.02;;;13.80;99.90;;;;;;5036092;28;20506;-79
2023/07/02 02:23:24;;;;;;;28.75;8.80;;;13.80;99.90;;;;;;5037274;28;20042;-77
2023/07/02 02:25:50;;;;;;;24.48;9.18;;;13.70;99.90;;;;;;5034830;28;20049;-78
2023/07/02 02:28:15;;;;;;;21.05;8.38;;;13.60;99.90;;;;;;5038076;28;20041;-79
2023/07/02 02:30:41;;;;;;;26.35;8.95;;;13.70;99.90;;;;;;5017310;28;20061;-77
2023/07/02 02:33:07;;;;;;;28.92;9.85;;;13.90;99.90;;;;;;5032405;28;20386;-78
2023/07/02 02:35:32;;;;;;;24.90;9.13;;;13.60;99.90;;;;;;5031815;28;20117;-79
2023/07/02 02:38:01;;;;;;;35.00;9.93;;;13.50;99.90;;;;;;5023079;28;20049;-78
2023/07/02 02:40:26;;;;;;;26.73;8.85;;;13.50;99.90;;;;;;5035012;28;20051;-78
2023/07/02 02:42:52;;;;;;;30.02;8.65;;;13.50;99.90;;;;;;5039853;28;20416;-77
2023/07/02 02:45:17;;;;;;;26.65;9.35;;;13.40;99.90;;;;;;5031969;28;20088;-78
2023/07/02 02:47:43;;;;;;;31.65;9.32;;;13.40;99.90;;;;;;5037712;28;20459;-78
2023/07/02 02:50:09;;;;;;;33.25;8.70;;;13.40;99.90;;;;;;5041072;28;20037;-77
2023/07/02 02:52:35;;;;;;;30.70;8.93;;;13.40;99.90;;;;;;5023873;28;20103;-77
2023/07/02 02:55:01;;;;;;;30.10;8.43;;;13.80;99.90;;;;;;5031886;28;20518;-77
2023/07/02 02:57:26;;;;;;;26.08;8.95;;;13.40;99.90;;;;;;5041661;28;20092;-77
2023/07/02 02:59:52;;;;;;;28.60;9.43;;;13.30;99.90;;;;;;5023835;28;20057;-78
2023/07/02 03:02:17;;;;;;;28.30;8.75;;;13.30;99.90;;;;;;5047309;28;20037;-78
2023/07/02 03:04:44;;;;;;;26.88;9.48;;;13.30;99.90;;;;;;5036139;28;20431;-78
2023/07/02 03:07:10;;;;;;;31.38;9.30;;;13.30;99.90;;;;;;5043046;28;20504;-78
2023/07/02 03:09:35;;;;;;;33.28;9.18;;;13.30;99.90;;;;;;5044312;28;20040;-77
2023/07/02 03:12:01;;;;;;;25.55;8.73;;;13.50;99.90;;;;;;5035196;28;20034;-78
2023/07/02 03:14:26;;;;;;;28.23;9.73;;;13.20;99.90;;;;;;5042272;28;20060;-78
2023/07/02 03:16:52;;;;;;;33.15;9.43;;;13.20;99.90;;;;;;5035371;28;20519;-78
2023/07/02 03:19:18;;;;;;;30.25;8.73;;;13.20;99.90;;;;;;5039260;28;20049;-78
2023/07/02 03:21:43;;;;;;;34.00;8.90;;;13.20;99.90;;;;;;5040084;28;20037;-78
2023/07/02 03:24:13;;;;;;;33.05;9.05;;;13.30;99.90;;;;;;5038210;28;20041;-79
2023/07/02 03:26:39;;;;;;;32.83;9.18;;;13.20;99.90;;;;;;5021467;28;20511;-77
2023/07/02 03:29:06;;;;;;;33.20;9.70;;;13.20;99.90;;;;;;5038523;28;20049;-79
2023/07/02 03:31:32;;;;;;;28.90;8.90;;;13.30;99.90;;;;;;5039310;28;20443;-77
2023/07/02 03:33:57;;;;;;;37.25;10.40;;;13.20;99.90;;;;;;5020893;28;20044;-77
2023/07/02 03:36:23;;;;;;;27.83;8.07;;;13.20;99.90;;;;;;5037379;28;20059;-78
2023/07/02 03:38:49;;;;;;;33.55;9.77;;;13.20;99.90;;;;;;5037574;28;20530;-77
2023/07/02 03:41:14;;;;;;;31.00;9.20;;;13.30;99.90;;;;;;5036066;28;20091;-77
2023/07/02 03:43:40;;;;;;;28.15;9.73;;;13.60;99.90;;;;;;5019176;28;20042;-78
2023/07/02 03:46:06;;;;;;;28.48;9.60;;;13.20;99.90;;;;;;5034092;28;20479;-79
2023/07/02 03:48:31;;;;;;;33.33;9.73;;;13.30;99.90;;;;;;5030833;28;20428;-78
2023/07/02 03:50:57;;;;;;;33.22;8.75;;;13.20;99.90;;;;;;5036307;28;20060;-77
2023/07/02 03:53:22;;;;;;;23.67;8.20;;;13.30;99.90;;;;;;5030865;28;20046;-77
2023/07/02 03:55:48;;;;;;;27.75;8.93;;;13.60;99.90;;;;;;5013613;28;20045;-78
2023/07/02 03:58:14;;;;;;;28.17;8.52;;;13.30;99.90;;;;;;5014096;28;20150;-78
2023/07/02 04:00:41;;;;;;;25.85;8.52;;;13.30;99.90;;;;;;5032500;28;20041;-78
2023/07/02 04:03:07;;;;;;;30.17;9.00;;;13.30;99.90;;;;;;5033236;28;20053;-78
2023/07/02 04:05:32;;;;;;;28.48;8.30;;;13.30;99.90;;;;;;5032759;28;20062;-77
2023/07/02 04:07:59;;;;;;;25.88;9.00;;;13.30;99.90;;;;;;5031905;28;20077;-78
2023/07/02 04:10:25;;;;;;;33.50;8.63;;;13.40;99.90;;;;;;5035114;28;20053;-78
2023/07/02 04:12:50;;;;;;;34.50;8.52;;;13.40;99.90;;;;;;5031854;28;20498;-77
2023/07/02 04:15:16;;;;;;;24.35;7.72;;;13.50;99.90;;;;;;5039829;28;20059;-79
2023/07/02 04:17:41;;;;;;;32.33;8.75;;;13.50;99.90;;;;;;5039899;28;20049;-78
2023/07/02 04:20:08;;;;;;;28.33;8.63;;;13.60;99.90;;;;;;5043784;28;20044;-77
2023/07/02 04:22:33;;;;;;;25.35;8.48;;;13.60;99.90;;;;;;5049930;28;20401;-78
2023/07/02 04:24:59;;;;;;;34.83;8.93;;;13.70;99.90;;;;;;5050187;28;20037;-78
2023/07/02 04:27:25;;;;;;;27.30;8.65;;;13.70;99.90;;;;;;5022495;28;20044;-78
2023/07/02 04:29:50;;;;;;;25.67;8.18;;;13.60;99.90;;;;;;5041147;28;20040;-78
2023/07/02 04:32:16;;;;;;;21.80;7.80;;;13.70;99.90;;;;;;5040525;28;20056;-76
2023/07/02 04:34:41;;;;;;;34.97;8.10;;;13.70;99.90;;;;;;5029155;28;20064;-77
2023/07/02 04:37:09;;;;;;;29.17;8.30;;;13.70;99.90;;;;;;5030014;28;20069;-78
2023/07/02 04:39:35;;;;;;;26.75;8.05;;;13.70;99.90;;;;;;5027042;28;20522;-78
2023/07/02 04:42:00;;;;;;;35.22;9.32;;;13.70;99.90;;;;;;5047043;28;20064;-78
2023/07/02 04:44:29;;;;;;;27.75;8.70;;;13.70;99.90;;;;;;5045147;28;20555;-78
2023/07/02 04:47:03;;;;;;;25.92;7.70;;;13.70;99.90;;;;;;5042740;28;20038;-77
2023/07/02 04:49:29;;;;;;;24.30;7.75;;;13.80;99.90;;;;;;5044229;28;20037;-76
2023/07/02 04:51:54;;;;;;;35.58;9.05;;;13.90;99.90;;;;;;5043844;28;20037;-77
2023/07/02 04:54:21;;;;;;;28.50;8.27;;;13.90;99.90;;;;;;5027286;28;20032;-76
2023/07/02 04:56:47;;;;;;;23.65;7.32;;;14.00;99.90;;;;;;5023641;28;20053;-76
2023/07/02 04:59:14;;;;;;;31.23;7.70;;;14.00;99.90;;;;;;5044021;28;20045;-76
2023/07/02 05:01:39;;;;;;;21.33;6.75;;;14.10;99.90;;;;;;5039397;28;20041;-76
2023/07/02 05:04:05;;;;;;;24.52;8.10;;;14.20;99.90;;;;;;5041537;28;20066;-77
2023/07/02 05:06:31;;;;;;;23.88;7.95;;;14.30;99.90;;;;;;5042519;28;20090;-77
2023/07/02 05:08:57;;;;;;;18.20;6.15;;;14.40;99.90;;;;;;5017601;28;20452;-78
2023/07/02 05:11:22;;;;;;;22.92;6.88;;;14.40;99.90;;;;;;5036777;28;20048;-77
2023/07/02 05:13:48;;;;;;;23.13;5.93;;;14.50;99.90;;;;;;5038795;28;20045;-78
2023/07/02 05:16:14;;;;;;;24.98;6.05;;;14.50;99.90;;;;;;5035112;28;20045;-76
2023/07/02 05:18:40;;;;;;;17.52;6.10;;;14.60;99.90;;;;;;5036268;28;20049;-76
2023/07/02 05:21:06;;;;;;;19.10;5.95;;;14.60;99.90;;;;;;5034083;28;20050;-75
2023/07/02 05:23:32;;;;;;;23.50;6.68;;;14.60;99.90;;;;;;5039639;28;20048;-77
2023/07/02 05:25:57;;;;;;;24.38;6.60;;;14.70;99.90;;;;;;5036945;28;20049;-78
2023/07/02 05:28:25;;;;;;;18.58;5.90;;;14.70;99.90;;;;;;5018883;28;20046;-76
2023/07/02 05:30:50;;;;;;;18.90;6.03;;;14.80;99.90;;;;;;5032066;28;20054;-77
2023/07/02 05:33:16;;;;;;;17.13;6.22;;;14.90;99.90;;;;;;5034589;28;20511;-77
2023/07/02 05:35:42;;;;;;;18.70;5.82;;;15.00;99.90;;;;;;5010868;28;20054;-77
2023/07/02 05:38:07;;;;;;;22.35;6.32;;;15.00;99.90;;;;;;5016698;28;20056;-78
2023/07/02 05:40:33;;;;;;;19.55;6.13;;;15.10;99.90;;;;;;5034406;28;20127;-78
2023/07/02 05:42:59;;;;;;;20.15;5.75;;;15.10;99.90;;;;;;5032243;28;20041;-78
2023/07/02 05:45:24;;;;;;;19.77;5.72;;;15.10;99.90;;;;;;5031229;28;20038;-76
2023/07/02 05:47:50;;;;;;;25.15;6.45;;;15.10;99.90;;;;;;5013568;28;20103;-78
2023/07/02 05:50:15;;;;;;;19.17;6.28;;;15.20;99.90;;;;;;5031560;28;20037;-79
2023/07/02 05:52:41;;;;;;;23.08;6.07;;;15.20;99.90;;;;;;5031312;28;20385;-79
2023/07/02 05:55:10;;;;;;;18.73;5.85;;;15.20;99.90;;;;;;5023154;28;20053;-76
2023/07/02 05:57:37;;;;;;;22.45;6.88;;;15.10;99.90;;;;;;5030326;28;20045;-75
2023/07/02 06:00:04;;;;;;;30.10;7.93;;;15.20;99.90;;;;;;5031239;28;20049;-79
2023/07/02 06:02:31;;;;;;;20.42;5.82;;;15.20;99.90;;;;;;5048749;28;20119;-78
2023/07/02 06:04:57;;;;;;;22.20;5.90;;;15.20;99.90;;;;;;5047751;28;20049;-78
2023/07/02 06:07:24;;;;;;;25.83;5.97;;;15.20;99.90;;;;;;5030058;28;20162;-76
2023/07/02 06:09:49;;;;;;;16.23;6.22;;;15.30;99.90;;;;;;5044498;28;20094;-75
2023/07/02 06:12:15;;;;;;;22.08;5.97;;;15.40;99.90;;;;;;5019906;28;20100;-77
2023/07/02 06:14:41;;;;;;;33.88;6.63;;;15.50;99.90;;;;;;5046374;28;20037;-77
2023/07/02 06:17:08;;;;;;;18.50;6.20;;;15.60;99.90;;;;;;5018108;28;20132;-76
2023/07/02 06:19:34;;;;;;;30.63;6.28;;;15.70;99.90;;;;;;5045386;28;20049;-76
2023/07/02 06:21:59;;;;;;;22.00;5.40;;;15.90;99.90;;;;;;5043927;28;20365;-78
2023/07/02 06:24:25;;;;;;;18.65;5.97;;;16.00;99.90;;;;;;5040908;28;20400;-77
2023/07/02 06:26:51;;;;;;;16.27;5.50;;;16.10;99.90;;;;;;5044334;28;20044;-78
2023/07/02 06:29:17;;;;;;;22.70;5.93;;;16.20;99.90;;;;;;5040718;28;20041;-75
2023/07/02 06:31:42;;;;;;;22.77;6.40;;;16.30;99.90;;;;;;5031981;28;20140;-76
2023/07/02 06:34:08;;;;;;;21.85;5.88;;;16.30;99.90;;;;;;5041108;28;20484;-78
2023/07/02 06:36:34;;;;;;;17.90;5.47;;;16.40;99.90;;;;;;5040185;28;20049;-77
2023/07/02 06:39:00;;;;;;;15.80;5.40;;;16.50;99.90;;;;;;5041140;28;20068;-74
2023/07/02 06:41:26;;;;;;;17.58;5.40;;;16.40;99.90;;;;;;5030493;28;20037;-77
2023/07/02 06:43:52;;;;;;;24.85;5.15;;;16.30;99.90;;;;;;5040407;28;20527;-77
2023/07/02 06:46:17;;;;;;;16.73;4.30;;;16.20;99.90;;;;;;5034468;28;20037;-78
2023/07/02 06:48:43;;;;;;;24.77;5.40;;;16.30;99.90;;;;;;5037477;28;20045;-77
2023/07/02 06:51:09;;;;;;;11.48;3.65;;;16.10;99.90;;;;;;5038340;28;20048;-78
2023/07/02 06:53:36;;;;;;;12.93;4.28;;;16.40;99.90;;;;;;5035835;28;20183;-76
2023/07/02 06:56:02;;;;;;;17.42;4.70;;;16.60;99.90;;;;;;5037853;28;20519;-79
2023/07/02 06:58:28;;;;;;;14.18;3.30;;;16.70;99.90;;;;;;5029962;28;20045;-75
2023/07/02 07:00:53;;;;;;;14.02;3.42;;;16.90;99.90;;;;;;5016254;28;20107;-76
2023/07/02 07:03:19;;;;;;;15.63;3.17;;;16.90;99.90;;;;;;5034634;28;20047;-77
2023/07/02 07:05:45;;;;;;;12.75;3.40;;;17.00;99.90;;;;;;5033117;28;20073;-78
2023/07/02 07:08:10;;;;;;;10.48;2.97;;;17.30;99.90;;;;;;5033905;28;20533;-77
2023/07/02 07:10:36;;;;;;;17.45;4.22;;;17.30;99.90;;;;;;5032167;28;20045;-76
2023/07/02 07:13:03;;;;;;;14.13;3.20;;;17.50;99.90;;;;;;5032083;28;20073;-77
2023/07/02 07:15:34;;;;;;;13.88;3.33;;;17.70;99.90;;;;;;5014084;28;20048;-74
2023/07/02 07:18:00;;;;;;;12.75;3.22;;;17.70;99.90;;;;;;5028533;28;20125;-77
2023/07/02 07:20:26;;;;;;;16.67;3.75;;;17.80;99.90;;;;;;5029569;28;20500;-75
2023/07/02 07:22:51;;;;;;;21.42;3.53;;;18.00;99.90;;;;;;5029816;28;20153;-78
2023/07/02 07:25:17;;;;;;;14.35;4.28;;;18.00;99.90;;;;;;5021706;28;20045;-77
2023/07/02 07:27:43;;;;;;;16.77;3.38;;;18.30;99.90;;;;;;5011553;28;20045;-76
2023/07/02 07:30:09;;;;;;;13.88;3.38;;;18.30;99.90;;;;;;5029224;28;20420;-75
2023/07/02 07:32:34;;;;;;;12.35;3.78;;;18.30;99.90;;;;;;5012133;28;20136;-76
2023/07/02 07:35:00;;;;;;;10.13;3.45;;;18.40;99.90;;;;;;5048849;28;20144;-78
2023/07/02 07:37:25;;;;;;;16.45;3.55;;;18.50;99.90;;;;;;5049854;28;20498;-77
2023/07/02 07:39:51;;;;;;;10.13;3.08;;;18.60;99.90;;;;;;5050171;28;20128;-78
2023/07/02 07:42:17;;;;;;;13.75;2.95;;;18.50;99.90;;;;;;5049793;28;20123;-77
2023/07/02 07:44:45;;;;;;;13.93;3.55;;;18.70;99.90;;;;;;5047980;28;20049;-74
2023/07/02 07:47:11;;;;;;;15.23;3.80;;;18.60;99.90;;;;;;5049169;28;20086;-74
2023/07/02 07:49:37;;;;;;;11.45;2.72;;;18.80;99.90;;;;;;5046174;28;20045;-74
2023/07/02 07:52:03;;;;;;;13.57;3.22;;;18.90;99.90;;;;;;5036747;28;20049;-75
2023/07/02 07:54:29;;;;;;;9.90;3.45;;;19.00;99.90;;;;;;5040347;28;20076;-76
2023/07/02 07:56:54;;;;;;;10.98;3.35;;;18.90;99.90;;;;;;5043069;28;20724;-75
2023/07/02 07:59:20;;;;;;;17.88;3.92;;;18.90;99.90;;;;;;5045992;28;20037;-75
2023/07/02 08:01:46;;;;;;;10.02;3.40;;;18.90;99.90;;;;;;5043119;28;20133;-76
2023/07/02 08:04:12;;;;;;;11.90;3.00;;;18.90;99.90;;;;;;5044571;28;20144;-76
2023/07/02 08:06:38;;;;;;;14.35;3.30;;;18.80;99.90;;;;;;5043145;28;20068;-78
2023/07/02 08:09:04;;;;;;;12.45;2.97;;;18.60;99.90;;;;;;5041665;28;20072;-76
2023/07/02 08:11:29;;;;;;;10.18;3.50;;;18.50;99.90;;;;;;5025463;28;20563;-76
2023/07/02 08:13:55;;;;;;;14.65;3.28;;;18.30;99.90;;;;;;5039667;28;20041;-78
2023/07/02 08:16:21;;;;;;;16.67;3.20;;;18.30;99.90;;;;;;5041342;28;20048;-77
2023/07/02 08:18:46;;;;;;;12.30;2.95;;;18.30;99.90;;;;;;5039466;28;20053;-76
2023/07/02 08:21:12;;;;;;;11.57;3.28;;;18.30;99.90;;;;;;5037911;28;20447;-80
2023/07/02 08:23:37;;;;;;;11.65;3.28;;;18.20;99.90;;;;;;5022742;28;20056;-75
2023/07/02 08:26:03;;;;;;;16.23;3.03;;;18.00;99.90;;;;;;5037506;28;20087;-77
2023/07/02 08:28:29;;;;;;;11.15;3.42;;;18.10;99.90;;;;;;5036825;28;20050;-78
2023/07/02 08:30:55;;;;;;;12.70;3.53;;;18.00;99.90;;;;;;5043651;28;20063;-79
2023/07/02 08:33:20;;;;;;;18.67;3.83;;;17.80;99.90;;;;;;5043121;28;20136;-76
2023/07/02 08:35:46;;;;;;;14.90;4.20;;;17.70;99.90;;;;;;5039541;28;20124;-77
2023/07/02 08:38:12;;;;;;;15.05;3.75;;;17.50;99.90;;;;;;5039073;28;20504;-76
2023/07/02 08:40:37;;;;;;;17.25;4.07;;;17.50;99.90;;;;;;5039090;28;20132;-78
2023/07/02 08:43:03;;;;;;;13.90;3.85;;;17.40;99.90;;;;;;5043066;28;20045;-78
2023/07/02 08:45:30;;;;;;;15.30;4.32;;;17.20;99.90;;;;;;5036544;28;20063;-76
2023/07/02 08:47:57;;;;;;;17.17;4.30;;;17.10;99.90;;;;;;5032107;28;20052;-76
2023/07/02 08:50:23;;;;;;;19.90;4.45;;;17.10;99.90;;;;;;5032298;28;20518;-76
2023/07/02 08:52:50;;;;;;;21.17;4.38;;;17.10;99.90;;;;;;5025471;28;20045;-79
2023/07/02 08:55:15;;;;;;;15.65;3.38;;;17.20;99.90;;;;;;5031932;28;20037;-76
2023/07/02 08:57:49;;;;;;;17.15;4.45;;;17.10;99.90;;;;;;5030206;28;20056;-77
2023/07/02 09:00:15;;;;;;;21.13;3.92;;;17.10;99.90;;;;;;5026937;28;20497;-77
2023/07/02 09:02:41;;;;;;;15.57;3.80;;;17.20;99.90;;;;;;5049639;28;20056;-76
2023/07/02 09:05:07;;;;;;;11.30;4.15;;;17.20;99.90;;;;;;5039837;28;20494;-77
2023/07/02 09:07:42;;;;;;;13.48;3.33;;;17.40;99.90;;;;;;5049655;28;20033;-77
2023/07/02 09:10:08;;;;;;;16.20;4.03;;;17.20;99.90;;;;;;5048021;28;20124;-76
2023/07/02 09:12:35;;;;;;;14.20;3.67;;;17.20;99.90;;;;;;5035071;28;20116;-75
2023/07/02 09:15:06;;;;;;;14.63;3.35;;;17.30;99.90;;;;;;5039095;28;20523;-74
2023/07/02 09:17:38;;;;;;;14.48;3.60;;;17.80;99.90;;;;;;5036150;28;20060;-78
2023/07/02 09:20:08;;;;;;;16.50;3.92;;;18.10;99.90;;;;;;5041294;28;20531;-77
2023/07/02 09:22:35;;;;;;;13.00;3.45;;;18.30;99.90;;;;;;5028884;28;20176;-76
2023/07/02 09:25:01;;;;;;;9.00;2.53;;;18.60;99.90;;;;;;5036513;28;20052;-78
2023/07/02 09:27:39;;;;;;;10.20;2.47;;;18.70;99.90;;;;;;5041300;28;20076;-75
2023/07/02 09:30:13;;;;;;;10.60;2.42;;;18.40;99.90;;;;;;5021660;28;20056;-75
2023/07/02 09:32:40;;;;;;;12.90;2.90;;;18.40;99.90;;;;;;5040623;28;20057;-74
2023/07/02 09:35:05;;;;;;;13.20;3.17;;;18.60;99.90;;;;;;5018840;28;20052;-76
2023/07/02 09:37:31;;;;;;;10.85;3.15;;;18.90;99.90;;;;;;5039133;28;20049;-77
2023/07/02 09:39:57;;;;;;;12.23;2.67;;;19.20;99.90;;;;;;5041826;28;20045;-74
2023/07/02 09:42:25;;;;;;;15.40;3.22;;;19.50;99.90;;;;;;5041686;28;20134;-76
2023/07/02 09:44:55;;;;;;;16.80;2.85;;;19.70;99.90;;;;;;5039050;28;20044;-75
2023/07/02 09:47:22;;;;;;;13.43;3.03;;;19.70;99.90;;;;;;5020917;28;20049;-76
2023/07/02 09:49:57;;;;;;;14.85;3.20;;;19.80;99.90;;;;;;5040301;28;20033;-75
2023/07/02 09:52:23;;;;;;;18.05;3.50;;;19.80;99.90;;;;;;5024105;28;20471;-76
2023/07/02 09:54:49;;;;;;;12.82;2.88;;;19.40;99.90;;;;;;5040932;28;20098;-76
2023/07/02 09:57:15;;;;;;;9.63;3.13;;;19.20;99.90;;;;;;5038150;28;20128;-76
2023/07/02 09:59:41;;;;;;;16.77;3.55;;;19.30;99.90;;;;;;5020251;28;20087;-77
2023/07/02 10:02:10;;;;;;;15.90;3.03;;;19.70;99.90;;;;;;5040678;28;20057;-76
2023/07/02 10:04:41;;;;;;;11.40;3.50;;;20.00;99.90;;;;;;5041305;28;20045;-75
2023/07/02 10:07:07;;;;;;;8.90;2.85;;;19.60;99.90;;;;;;5039284;28;20057;-75
2023/07/02 10:09:38;;;;;;;12.55;3.13;;;19.50;99.90;;;;;;5020311;28;20036;-77
2023/07/02 10:12:27;;;;;;;10.98;3.20;;;19.30;99.90;;;;;;5021167;28;20054;-75
2023/07/02 10:14:55;;;;;;;13.18;3.25;;;19.10;99.90;;;;;;5023598;28;20140;-74
2023/07/02 10:17:30;;;;;;;14.25;3.28;;;19.40;99.90;;;;;;5038855;28;20108;-75
2023/07/02 10:20:07;;;;;;;12.48;3.42;;;19.50;99.90;;;;;;5020044;28;20439;-77
2023/07/02 10:22:47;;;;;;;8.98;2.63;;;19.60;99.90;;;;;;4994890;28;20119;-74
2023/07/02 10:25:27;;;;;;;14.63;3.15;;;19.90;99.90;;;;;;5020404;28;20048;-76
2023/07/02 10:27:53;;;;;;;16.00;3.05;;;19.80;99.90;;;;;;5041198;28;20072;-76
2023/07/02 10:30:18;;;;;;;11.25;3.40;;;19.70;99.90;;;;;;5022768;28;20443;-77
2023/07/02 10:32:44;;;;;;;13.07;3.55;;;19.70;99.90;;;;;;5037636;28;20053;-76
2023/07/02 10:35:14;;;;;;;9.07;2.55;;;19.70;99.90;;;;;;5010561;28;20551;-76
2023/07/02 10:37:40;;;;;;;10.43;2.75;;;19.90;99.90;;;;;;5019219;28;20071;-77
2023/07/02 10:40:10;;;;;;;13.85;3.72;;;19.70;99.90;;;;;;5017206;28;20489;-75
2023/07/02 10:42:50;;;;;;;12.05;3.08;;;20.00;99.90;;;;;;4999663;28;20046;-76
2023/07/02 10:45:16;;;;;;;9.75;3.08;;;19.90;99.90;;;;;;5022343;28;20502;-77
2023/07/02 10:47:42;;;;;;;12.30;2.60;;;19.90;99.90;;;;;;5020706;28;20053;-77
2023/07/02 10:50:18;;;;;;;8.35;2.38;;;19.80;99.90;;;;;;5006488;28;20048;-79
2023/07/02 10:52:44;;;;;;;10.40;3.22;;;20.10;99.90;;;;;;5013026;28;20131;-77
2023/07/02 10:55:10;;;;;;;10.10;2.80;;;20.30;99.90;;;;;;5019580;28;20131;-78
2023/07/02 10:57:35;;;;;;;15.02;4.00;;;20.50;99.90;;;;;;5021621;28;20048;-79
2023/07/02 11:00:07;;;;;;;10.68;2.97;;;20.70;99.90;;;;;;5037841;28;20659;-77
2023/07/02 11:02:39;;;;;;;13.63;3.28;;;20.50;99.90;;;;;;5039544;28;20048;-77
2023/07/02 11:05:06;;;;;;;12.82;3.00;;;20.40;99.90;;;;;;5035721;28;20041;-77
2023/07/02 11:07:33;;;;;;;9.75;2.33;;;20.20;99.90;;;;;;5038137;28;20049;-79
2023/07/02 11:09:58;;;;;;;9.38;2.50;;;20.20;99.60;;;;;;5035266;28;20092;-79
2023/07/02 11:12:28;;;;;;;12.30;3.22;;;20.30;99.90;;;;;;5039932;28;20041;-78
2023/07/02 11:14:54;;;;;;;13.35;3.05;;;20.70;99.90;;;;;;5015845;28;20055;-76
2023/07/02 11:17:25;;;;;;;12.43;2.40;;;20.70;99.90;;;;;;5035360;28;20034;-78
2023/07/02 11:19:51;;;;;;;11.43;2.35;;;20.50;99.90;;;;;;5032918;28;20056;-78
2023/07/02 11:22:17;;;;;;;9.45;2.35;;;20.30;99.90;;;;;;5027185;28;20049;-78
2023/07/02 11:24:43;;;;;;;9.68;2.17;;;20.40;99.90;;;;;;5016870;28;20407;-76
2023/07/02 11:27:08;;;;;;;11.45;2.85;;;20.30;99.90;;;;;;5010304;28;20466;-76
2023/07/02 11:29:36;;;;;;;11.63;3.20;;;19.90;99.90;;;;;;5031831;28;20464;-79
2023/07/02 11:32:06;;;;;;;10.43;2.63;;;20.10;99.90;;;;;;5013714;28;20065;-79
2023/07/02 11:34:32;;;;;;;9.32;2.70;;;20.10;99.90;;;;;;5025312;28;20096;-77
2023/07/02 11:36:58;;;;;;;14.18;3.33;;;19.90;99.90;;;;;;5028619;28;20043;-78
2023/07/02 11:39:24;;;;;;;8.15;1.77;;;19.60;99.90;;;;;;5022817;28;20432;-75
2023/07/02 11:41:50;;;;;;;13.57;2.33;;;19.90;99.70;;;;;;5026748;28;20545;-74
2023/07/02 11:44:17;;;;;;;10.23;2.28;;;19.80;99.90;;;;;;5003218;28;20053;-73
2023/07/02 11:46:43;;;;;;;11.07;2.05;;;19.60;99.40;;;;;;5009563;28;20045;-75
2023/07/02 11:49:09;;;;;;;8.95;2.00;;;19.50;99.80;;;;;;5025749;28;20092;-75
2023/07/02 11:51:39;;;;;;;11.15;2.45;;;19.60;99.90;;;;;;5017946;28;20069;-77
2023/07/02 11:54:05;;;;;;;9.43;2.65;;;19.60;99.90;;;;;;5018657;28;20045;-77
2023/07/02 11:56:31;;;;;;;9.68;2.42;;;19.50;99.90;;;;;;5016298;28;20033;-74
2023/07/02 11:58:57;;;;;;;10.60;2.83;;;19.70;99.90;;;;;;4998265;28;20049;-74
2023/07/02 12:01:22;;;;;;;7.88;2.22;;;19.80;99.70;;;;;;5041582;28;20434;-76
2023/07/02 12:03:48;;;;;;;9.85;2.63;;;20.00;99.80;;;;;;5043850;28;20064;-75
2023/07/02 12:06:14;;;;;;;11.10;2.22;;;20.00;99.50;;;;;;5013260;28;20045;-77
2023/07/02 12:08:40;;;;;;;8.93;2.42;;;19.80;99.70;;;;;;5043890;28;20053;-74
2023/07/02 12:11:05;;;;;;;10.98;2.55;;;19.70;99.90;;;;;;5042192;28;20068;-75
2023/07/02 12:13:31;;;;;;;11.23;2.67;;;19.60;99.90;;;;;;5022578;28;20049;-76
2023/07/02 12:15:56;;;;;;;11.27;2.67;;;19.70;99.90;;;;;;5040420;28;20128;-74
2023/07/02 12:18:22;;;;;;;10.07;2.38;;;19.70;99.90;;;;;;5042804;28;20041;-75
2023/07/02 12:20:48;;;;;;;11.43;1.90;;;19.70;99.90;;;;;;5025065;28;20049;-76
2023/07/02 12:23:13;;;;;;;11.02;2.63;;;19.50;99.90;;;;;;5042790;28;20068;-76
2023/07/02 12:25:39;;;;;;;8.52;2.60;;;19.50;99.80;;;;;;5022252;28;20046;-75
2023/07/02 12:28:05;;;;;;;11.93;3.13;;;19.60;99.60;;;;;;5040137;28;20041;-75
2023/07/02 12:30:31;;;;;;;12.65;2.78;;;19.50;99.00;;;;;;5041917;28;20053;-76
2023/07/02 12:32:57;;;;;;;10.50;2.55;;;19.10;99.10;;;;;;5042737;28;20083;-75
2023/07/02 12:35:23;;;;;;;11.93;2.90;;;19.00;99.40;;;;;;5024982;28;20496;-78